Time;durP1;ratioP1;P1;durP2;ratioP2;P2;SDS_P1;SDS_P2;PMS_P1;PMS_P2;Temp;Humidity;BMP_temperature;BMP_pressure;BME280_temperature;BME280_humidity;BME280_pressure;Samples;Min_cycle;Max_cycle;Signal;HPM_P1;HPM_P2
2023/07/12 00:01:10;;;;;;;15.27;10.48;;;;;;;19.80;90.48;100740.50;5045182;28;20115;-70
2023/07/12 00:03:35;;;;;;;16.02;10.60;;;;;;;19.79;90.77;100738.84;5044776;28;20084;-70
2023/07/12 00:06:01;;;;;;;16.35;11.10;;;;;;;19.80;90.84;100744.13;5044646;28;20484;-69
2023/07/12 00:08:28;;;;;;;17.13;10.77;;;;;;;19.72;90.51;100731.16;5042774;28;20029;-69
2023/07/12 00:10:56;;;;;;;13.50;9.80;;;;;;;19.61;91.78;100719.69;5032251;28;20116;-69
2023/07/12 00:13:23;;;;;;;17.08;10.73;;;;;;;19.64;91.50;100733.00;5033965;28;20091;-69
2023/07/12 00:15:50;;;;;;;16.77;10.43;;;;;;;19.63;91.57;100722.94;5042195;28;20037;-69
2023/07/12 00:18:18;;;;;;;17.45;10.43;;;;;;;19.54;90.54;100722.38;5039494;28;20040;-69
2023/07/12 00:20:45;;;;;;;17.38;10.00;;;;;;;19.54;90.83;100732.78;5034023;28;20052;-69
2023/07/12 00:23:12;;;;;;;17.50;10.15;;;;;;;19.39;91.26;100743.72;5040097;28;20053;-70
2023/07/12 00:25:37;;;;;;;15.98;10.45;;;;;;;19.41;91.36;100758.19;5042966;28;20516;-71
2023/07/12 00:28:21;;;;;;;16.50;10.63;;;;;;;19.41;91.97;100758.19;5046502;28;20075;-71
2023/07/12 00:30:47;;;;;;;16.85;10.52;;;;;;;19.33;91.60;100768.44;5050880;28;20516;-70
2023/07/12 00:33:13;;;;;;;16.70;10.43;;;;;;;19.31;91.87;100761.56;5050286;28;20029;-70
2023/07/12 00:35:41;;;;;;;17.58;10.70;;;;;;;19.30;92.59;100773.97;5031321;28;20025;-71
2023/07/12 00:38:14;;;;;;;18.40;10.82;;;;;;;19.24;91.88;100767.03;5049800;28;20447;-70
2023/07/12 00:40:53;;;;;;;15.98;10.80;;;;;;;19.15;91.89;100782.09;5038586;28;20041;-71
2023/07/12 00:43:31;;;;;;;15.98;10.70;;;;;;;19.13;91.78;100780.81;5031019;28;20108;-71
2023/07/12 00:46:00;;;;;;;18.23;10.90;;;;;;;19.07;92.11;100787.88;5035865;28;20099;-72
2023/07/12 00:48:25;;;;;;;19.85;11.32;;;;;;;19.01;91.02;100796.59;5032860;28;20099;-72
2023/07/12 00:50:51;;;;;;;16.40;10.73;;;;;;;19.02;90.71;100801.03;5034925;28;20446;-72
2023/07/12 00:53:19;;;;;;;16.73;10.60;;;;;;;18.96;90.93;100804.47;5038158;28;20804;-72
2023/07/12 00:56:04;;;;;;;15.32;10.63;;;;;;;19.02;91.00;100811.41;5046862;28;20056;-71
2023/07/12 00:58:37;;;;;;;18.52;10.77;;;;;;;18.89;90.20;100812.69;5048502;28;20037;-70
2023/07/12 01:01:04;;;;;;;18.20;10.95;;;;;;;18.89;90.68;100813.50;5050105;28;20029;-71
2023/07/12 01:03:33;;;;;;;18.15;11.07;;;;;;;18.84;90.79;100811.78;5045970;28;20037;-72
2023/07/12 01:05:59;;;;;;;19.70;11.57;;;;;;;18.76;91.54;100821.19;5034129;28;20465;-70
2023/07/12 01:08:27;;;;;;;18.65;11.15;;;;;;;18.64;90.48;100833.31;5036415;28;20036;-70
2023/07/12 01:10:53;;;;;;;18.67;11.70;;;;;;;18.54;90.12;100823.44;5054233;28;20036;-72
2023/07/12 01:13:21;;;;;;;18.27;11.55;;;;;;;18.50;89.48;100824.53;5041249;28;20079;-72
2023/07/12 01:15:47;;;;;;;18.92;11.40;;;;;;;18.47;89.39;100831.69;5033953;28;20049;-71
2023/07/12 01:18:13;;;;;;;19.95;11.15;;;;;;;18.51;90.00;100824.19;5034084;28;20025;-70
2023/07/12 01:20:40;;;;;;;18.88;11.40;;;;;;;18.50;88.56;100841.34;5049528;28;20029;-70
2023/07/12 01:23:05;;;;;;;18.50;10.93;;;;;;;18.47;88.38;100826.09;5044957;28;20063;-70
2023/07/12 01:25:44;;;;;;;17.45;10.93;;;;;;;18.46;88.02;100826.44;5047133;28;20045;-69
2023/07/12 01:28:10;;;;;;;18.10;10.68;;;;;;;18.36;87.09;100796.97;5041956;28;20030;-69
2023/07/12 01:30:36;;;;;;;19.75;11.15;;;;;;;18.23;87.60;100777.44;5034025;28;20029;-69
2023/07/12 01:33:03;;;;;;;17.48;10.75;;;;;;;18.24;89.60;100798.69;5040041;28;20094;-70
2023/07/12 01:35:30;;;;;;;18.83;10.55;;;;;;;18.20;89.90;100794.16;5044473;28;20476;-70
2023/07/12 01:37:55;;;;;;;17.52;10.73;;;;;;;18.22;90.13;100808.63;5047264;28;20507;-71
2023/07/12 01:40:21;;;;;;;18.23;10.35;;;;;;;18.22;90.35;100812.25;5048920;28;20033;-72
2023/07/12 01:42:46;;;;;;;18.75;11.20;;;;;;;18.21;89.96;100812.59;5040627;28;20048;-71
2023/07/12 01:45:12;;;;;;;19.55;11.48;;;;;;;18.20;91.00;100796.97;5052588;28;20052;-71
2023/07/12 01:47:37;;;;;;;19.90;12.05;;;;;;;18.15;91.89;100786.03;5035422;28;20030;-71
2023/07/12 01:50:03;;;;;;;19.05;11.32;;;;;;;18.12;93.15;100803.56;5033970;28;20037;-71
2023/07/12 01:52:28;;;;;;;19.05;11.23;;;;;;;18.05;92.50;100796.59;5035748;28;20021;-72
2023/07/12 01:54:54;;;;;;;17.92;10.70;;;;;;;18.03;93.33;100790.53;5035648;28;20035;-71
2023/07/12 01:57:19;;;;;;;17.75;10.68;;;;;;;17.97;93.54;100772.38;5043931;28;20036;-70
2023/07/12 01:59:44;;;;;;;19.00;11.30;;;;;;;17.97;93.95;100760.38;5032725;28;20492;-71
2023/07/12 02:02:10;;;;;;;17.55;11.25;;;;;;;17.97;93.70;100752.81;5032980;28;20040;-69
2023/07/12 02:04:35;;;;;;;20.33;11.00;;;;;;;17.94;94.08;100761.88;5051330;28;20165;-69
2023/07/12 02:07:03;;;;;;;16.33;10.90;;;;;;;17.89;94.88;100759.34;5039647;28;20417;-69
2023/07/12 02:09:33;;;;;;;17.08;10.73;;;;;;;17.76;96.55;100773.41;5032191;28;20033;-69
2023/07/12 02:11:59;;;;;;;19.00;11.10;;;;;;;17.73;97.54;100788.09;5032709;28;20045;-70
2023/07/12 02:14:24;;;;;;;17.48;11.20;;;;;;;17.61;99.28;100754.59;5049184;28;20025;-69
2023/07/12 02:16:49;;;;;;;18.00;11.43;;;;;;;17.53;99.95;100756.38;5051850;28;20150;-70
2023/07/12 02:19:14;;;;;;;17.38;11.73;;;;;;;17.56;100.00;100732.47;5036701;28;20036;-71
2023/07/12 02:21:40;;;;;;;20.30;11.88;;;;;;;17.52;100.00;100793.09;5034094;28;20433;-70
2023/07/12 02:24:05;;;;;;;19.45;11.82;;;;;;;17.55;100.00;100825.94;5035915;28;20399;-70
2023/07/12 02:26:31;;;;;;;18.38;11.63;;;;;;;17.54;100.00;100799.94;5031945;28;20049;-71
2023/07/12 02:28:56;;;;;;;18.73;11.75;;;;;;;17.52;100.00;100801.47;5036113;28;20057;-70
2023/07/12 02:31:24;;;;;;;18.25;12.07;;;;;;;17.41;100.00;100813.16;5040391;28;20037;-70
2023/07/12 02:33:50;;;;;;;19.50;12.00;;;;;;;17.29;100.00;100819.56;5037420;28;20029;-72
2023/07/12 02:36:17;;;;;;;19.58;12.15;;;;;;;17.20;100.00;100801.31;5056741;28;20028;-71
2023/07/12 02:38:42;;;;;;;19.00;12.27;;;;;;;17.16;100.00;100787.25;5034591;28;20068;-72
2023/07/12 02:41:08;;;;;;;18.95;12.20;;;;;;;17.15;100.00;100772.44;5032573;28;20031;-72
2023/07/12 02:43:35;;;;;;;19.23;12.88;;;;;;;17.16;100.00;100773.28;5033325;28;20547;-72
2023/07/12 02:46:00;;;;;;;19.52;12.80;;;;;;;17.07;100.00;100776.19;5042284;28;20192;-71
2023/07/12 02:48:26;;;;;;;20.10;13.40;;;;;;;17.09;100.00;100773.84;5031579;28;20036;-72
2023/07/12 02:50:51;;;;;;;19.70;12.93;;;;;;;17.01;100.00;100769.22;5045391;28;20114;-70
2023/07/12 02:53:18;;;;;;;20.65;13.00;;;;;;;16.91;100.00;100781.66;5039963;28;20030;-70
2023/07/12 02:55:46;;;;;;;19.05;13.02;;;;;;;16.90;100.00;100787.59;5031968;28;20445;-68
2023/07/12 02:58:11;;;;;;;21.27;13.50;;;;;;;16.77;100.00;100798.78;5035280;28;20404;-69
2023/07/12 03:00:37;;;;;;;20.45;13.65;;;;;;;16.75;100.00;100791.91;5031702;28;20036;-69
2023/07/12 03:03:02;;;;;;;19.00;13.07;;;;;;;16.73;100.00;100800.66;5042961;28;20021;-69
2023/07/12 03:05:28;;;;;;;18.50;12.85;;;;;;;16.73;100.00;100802.63;5030530;28;20497;-69
2023/07/12 03:07:53;;;;;;;19.13;13.15;;;;;;;16.72;100.00;100801.81;5041058;28;20457;-68
2023/07/12 03:10:18;;;;;;;19.02;13.18;;;;;;;16.68;100.00;100792.50;5035927;28;20030;-69
2023/07/12 03:12:44;;;;;;;21.33;12.65;;;;;;;16.67;100.00;100797.28;5031574;28;20040;-68
2023/07/12 03:15:09;;;;;;;19.38;12.77;;;;;;;16.71;100.00;100804.97;5035026;28;20041;-69
2023/07/12 03:17:35;;;;;;;19.08;12.70;;;;;;;16.62;100.00;100810.66;5047695;28;20052;-69
2023/07/12 03:20:00;;;;;;;18.60;12.80;;;;;;;16.63;100.00;100806.69;5046247;28;20028;-68
2023/07/12 03:22:26;;;;;;;18.42;12.18;;;;;;;16.62;100.00;100813.44;5038674;28;20540;-69
2023/07/12 03:24:51;;;;;;;18.85;13.07;;;;;;;16.57;100.00;100816.47;5034341;28;20029;-69
2023/07/12 03:27:16;;;;;;;18.73;12.68;;;;;;;16.57;100.00;100811.69;5043610;28;20035;-69
2023/07/12 03:29:43;;;;;;;18.42;12.52;;;;;;;16.52;100.00;100809.16;5041807;28;20051;-68
2023/07/12 03:32:08;;;;;;;18.13;12.38;;;;;;;16.51;100.00;100813.09;5034420;28;20111;-69
2023/07/12 03:34:33;;;;;;;19.02;12.95;;;;;;;16.45;100.00;100806.94;5033539;28;20125;-67
2023/07/12 03:37:00;;;;;;;19.55;12.85;;;;;;;16.41;100.00;100807.97;5050592;28;20483;-69
2023/07/12 03:39:25;;;;;;;18.85;13.10;;;;;;;16.35;100.00;100821.34;5039205;28;20033;-68
2023/07/12 03:41:51;;;;;;;20.48;13.32;;;;;;;16.40;100.00;100831.47;5048672;28;20103;-68
2023/07/12 03:44:16;;;;;;;19.23;13.38;;;;;;;16.44;100.00;100827.63;5041337;28;20396;-68
2023/07/12 03:46:41;;;;;;;19.73;12.52;;;;;;;16.47;100.00;100834.50;5036531;28;20502;-67
2023/07/12 03:49:07;;;;;;;18.30;12.57;;;;;;;16.50;100.00;100834.59;5043247;28;20029;-69
2023/07/12 03:51:32;;;;;;;19.02;12.32;;;;;;;16.47;100.00;100842.88;5035761;28;20037;-69
2023/07/12 03:53:58;;;;;;;18.58;12.20;;;;;;;16.47;100.00;100845.66;5046828;28;20075;-69
2023/07/12 03:56:23;;;;;;;18.73;12.55;;;;;;;16.45;100.00;100839.59;5030608;28;20026;-69
2023/07/12 03:58:49;;;;;;;19.20;13.07;;;;;;;16.45;100.00;100837.63;5041604;28;20467;-71
2023/07/12 04:01:14;;;;;;;19.23;13.15;;;;;;;16.43;100.00;100842.75;5032702;28;20033;-68
2023/07/12 04:03:40;;;;;;;20.38;13.80;;;;;;;16.43;100.00;100842.75;5044932;28;20051;-70
2023/07/12 04:06:07;;;;;;;20.35;14.70;;;;;;;16.43;100.00;100850.31;5032686;28;20026;-71
2023/07/12 04:08:32;;;;;;;20.35;14.02;;;;;;;16.42;100.00;100849.50;5040524;28;20056;-71
2023/07/12 04:10:58;;;;;;;19.38;12.98;;;;;;;16.45;100.00;100854.38;5032223;28;20138;-69
2023/07/12 04:13:25;;;;;;;20.35;12.82;;;;;;;16.50;100.00;100850.56;5030897;28;20428;-70
2023/07/12 04:15:54;;;;;;;19.58;13.23;;;;;;;16.50;100.00;100842.19;5034172;28;20032;-68
2023/07/12 04:18:20;;;;;;;19.65;12.27;;;;;;;16.53;100.00;100849.88;5050813;28;20035;-68
2023/07/12 04:20:45;;;;;;;19.77;13.18;;;;;;;16.47;100.00;100852.06;5030737;28;20017;-68
2023/07/12 04:23:11;;;;;;;19.98;12.75;;;;;;;16.49;100.00;100860.91;5048277;28;20480;-68
2023/07/12 04:25:36;;;;;;;19.50;12.60;;;;;;;16.53;100.00;100859.06;5030993;28;20421;-68
2023/07/12 04:28:02;;;;;;;19.83;12.60;;;;;;;16.46;100.00;100857.97;5033053;28;20144;-71
2023/07/12 04:30:27;;;;;;;21.08;12.95;;;;;;;16.41;100.00;100869.38;5042127;28;20041;-70
2023/07/12 04:32:53;;;;;;;20.83;12.38;;;;;;;16.36;100.00;100860.06;5038899;28;20068;-72
2023/07/12 04:35:19;;;;;;;21.40;12.30;;;;;;;16.37;100.00;100855.31;5030991;28;20107;-72
2023/07/12 04:37:46;;;;;;;20.77;12.23;;;;;;;16.44;100.00;100854.72;5040357;28;20033;-71
2023/07/12 04:40:12;;;;;;;19.23;11.80;;;;;;;16.46;100.00;100860.78;5047351;28;20119;-70
2023/07/12 04:42:37;;;;;;;20.52;12.13;;;;;;;16.55;100.00;100861.50;5052944;28;20037;-70
2023/07/12 04:45:04;;;;;;;21.67;12.45;;;;;;;16.61;100.00;100857.34;5040938;28;20029;-71
2023/07/12 04:47:30;;;;;;;21.00;12.18;;;;;;;16.60;100.00;100857.66;5054341;28;20040;-69
2023/07/12 04:49:55;;;;;;;20.00;12.68;;;;;;;16.59;100.00;100858.81;5047175;28;20029;-71
2023/07/12 04:52:20;;;;;;;19.50;12.18;;;;;;;16.59;100.00;100856.84;5034365;28;20559;-70
2023/07/12 04:54:46;;;;;;;19.85;12.00;;;;;;;16.59;100.00;100858.81;5042367;28;20079;-70
2023/07/12 04:57:11;;;;;;;21.45;12.30;;;;;;;16.52;100.00;100862.19;5054131;28;20029;-68
2023/07/12 04:59:36;;;;;;;22.63;12.68;;;;;;;16.47;100.00;100865.19;5050404;28;20538;-69
2023/07/12 05:02:02;;;;;;;21.90;12.30;;;;;;;16.48;100.00;100866.84;5045303;28;20036;-68
2023/07/12 05:04:28;;;;;;;20.73;12.05;;;;;;;16.46;100.00;100864.41;5041496;28;20846;-69
2023/07/12 05:06:53;;;;;;;19.15;12.20;;;;;;;16.48;100.00;100867.63;5033971;28;20060;-68
2023/07/12 05:09:20;;;;;;;21.02;12.95;;;;;;;16.48;100.00;100872.41;5034216;28;20041;-70
2023/07/12 05:11:47;;;;;;;20.50;12.63;;;;;;;16.46;100.00;100869.97;5037584;28;20026;-69
2023/07/12 05:14:12;;;;;;;20.48;11.57;;;;;;;16.55;100.00;100872.66;5032893;28;20030;-70
2023/07/12 05:16:38;;;;;;;19.58;12.18;;;;;;;16.54;100.00;100873.81;5037620;28;20048;-68
2023/07/12 05:19:03;;;;;;;19.23;11.57;;;;;;;16.56;100.00;100868.72;5033813;28;20041;-68
2023/07/12 05:21:29;;;;;;;20.85;11.35;;;;;;;16.59;100.00;100872.78;5037212;28;20048;-67
2023/07/12 05:23:54;;;;;;;20.17;11.65;;;;;;;16.64;100.00;100876.16;5042208;28;20029;-67
2023/07/12 05:26:19;;;;;;;19.10;11.48;;;;;;;16.73;100.00;100878.03;5044312;28;20386;-67
2023/07/12 05:28:45;;;;;;;19.40;11.63;;;;;;;16.71;100.00;100877.59;5034957;28;20040;-68
2023/07/12 05:31:12;;;;;;;18.70;11.50;;;;;;;16.59;100.00;100873.59;5038305;28;20045;-68
2023/07/12 05:33:43;;;;;;;20.88;11.40;;;;;;;16.63;100.00;100876.53;5035764;28;20282;-68
2023/07/12 05:36:09;;;;;;;20.80;11.80;;;;;;;16.60;100.00;100883.63;5053406;28;20045;-67
2023/07/12 05:38:35;;;;;;;19.75;11.75;;;;;;;16.68;100.00;100887.44;5043471;28;20037;-67
2023/07/12 05:41:01;;;;;;;19.77;11.18;;;;;;;16.79;100.00;100899.81;5037250;28;20057;-68
2023/07/12 05:43:27;;;;;;;20.33;11.45;;;;;;;16.85;100.00;100900.41;5049373;28;20068;-67
2023/07/12 05:45:52;;;;;;;18.42;11.77;;;;;;;16.90;100.00;100902.16;5033145;28;20033;-68
2023/07/12 05:48:18;;;;;;;17.92;11.35;;;;;;;16.99;100.00;100903.72;5049212;28;20032;-68
2023/07/12 05:50:47;;;;;;;21.75;11.82;;;;;;;17.03;100.00;100900.22;5033257;28;20037;-68
2023/07/12 05:53:12;;;;;;;21.30;11.65;;;;;;;17.10;100.00;100903.22;5036498;28;20075;-69
2023/07/12 05:55:37;;;;;;;19.70;11.30;;;;;;;17.18;100.00;100895.91;5041069;28;20124;-69
2023/07/12 05:58:04;;;;;;;18.67;11.68;;;;;;;17.28;100.00;100901.84;5045318;28;20184;-68
2023/07/12 06:00:29;;;;;;;19.15;11.77;;;;;;;17.45;100.00;100894.38;5044868;28;20018;-68
2023/07/12 06:02:54;;;;;;;20.25;12.05;;;;;;;17.47;99.06;100903.22;5037419;28;20056;-68
2023/07/12 06:05:20;;;;;;;18.50;11.52;;;;;;;17.48;99.64;100913.22;5035321;28;20460;-68
2023/07/12 06:07:45;;;;;;;21.48;12.13;;;;;;;17.52;97.66;100916.16;5035194;28;20033;-69
2023/07/12 06:10:11;;;;;;;20.02;11.90;;;;;;;17.46;99.11;100921.97;5032817;28;20029;-69
2023/07/12 06:12:37;;;;;;;19.20;11.73;;;;;;;17.52;98.63;100916.94;5034746;28;20022;-67
2023/07/12 06:15:03;;;;;;;19.95;12.00;;;;;;;17.61;98.98;100914.84;5048975;28;20362;-68
2023/07/12 06:17:29;;;;;;;19.92;11.82;;;;;;;17.59;97.38;100919.16;5041129;28;20139;-68
2023/07/12 06:19:54;;;;;;;19.08;11.30;;;;;;;17.64;97.02;100918.09;5038085;28;20357;-69
2023/07/12 06:22:20;;;;;;;19.63;11.70;;;;;;;17.68;96.73;100919.00;5048885;28;20024;-69
2023/07/12 06:24:45;;;;;;;19.67;11.43;;;;;;;17.72;96.43;100929.16;5043776;28;20036;-69
2023/07/12 06:27:10;;;;;;;21.67;12.07;;;;;;;17.78;96.43;100924.13;5045067;28;20485;-68
2023/07/12 06:29:36;;;;;;;19.83;11.65;;;;;;;17.79;96.22;100925.75;5047900;28;20028;-68
2023/07/12 06:32:01;;;;;;;19.55;12.02;;;;;;;17.81;95.55;100923.41;5032493;28;20539;-70
2023/07/12 06:34:27;;;;;;;19.88;11.90;;;;;;;17.86;95.82;100931.56;5039772;28;20037;-70
2023/07/12 06:36:53;;;;;;;17.75;11.18;;;;;;;17.98;95.20;100941.13;5037742;28;20025;-70
2023/07/12 06:39:18;;;;;;;20.42;12.00;;;;;;;18.01;94.91;100943.22;5050293;28;20116;-71
2023/07/12 06:41:43;;;;;;;20.60;12.43;;;;;;;18.03;94.52;100943.69;5049805;28;20028;-68
2023/07/12 06:44:09;;;;;;;22.13;11.95;;;;;;;18.08;94.49;100954.63;5044149;28;20024;-70
2023/07/12 06:46:34;;;;;;;21.55;12.65;;;;;;;18.09;92.87;100956.25;5046085;28;20047;-70
2023/07/12 06:49:00;;;;;;;21.35;12.35;;;;;;;18.05;94.04;100961.75;5034401;28;20384;-72
2023/07/12 06:51:25;;;;;;;22.73;12.32;;;;;;;18.02;93.89;100967.25;5032734;28;20045;-69
2023/07/12 06:53:50;;;;;;;20.48;12.45;;;;;;;17.88;93.10;100962.00;5046874;28;20033;-69
2023/07/12 06:56:16;;;;;;;20.13;12.73;;;;;;;17.81;93.74;100971.00;5043457;28;20029;-69
2023/07/12 06:58:41;;;;;;;20.50;12.77;;;;;;;17.75;94.66;100959.22;5051858;28;20029;-72
2023/07/12 07:01:08;;;;;;;21.88;13.13;;;;;;;17.75;94.45;100973.22;5043422;28;20027;-72
2023/07/12 07:03:34;;;;;;;21.98;12.98;;;;;;;17.78;94.19;100971.69;5031915;28;20068;-73
2023/07/12 07:05:59;;;;;;;20.73;12.93;;;;;;;17.77;94.07;100978.44;5049488;28;20066;-73
2023/07/12 07:08:25;;;;;;;22.33;12.40;;;;;;;17.75;94.09;100975.22;5039102;28;20125;-69
2023/07/12 07:10:52;;;;;;;21.65;12.73;;;;;;;17.75;94.12;100986.41;5031647;28;20559;-69
2023/07/12 07:13:21;;;;;;;22.92;13.00;;;;;;;17.82;94.26;100982.97;5041381;28;20040;-71
2023/07/12 07:15:47;;;;;;;22.17;12.45;;;;;;;17.95;93.63;101001.41;5044751;28;20492;-72
2023/07/12 07:18:12;;;;;;;20.08;11.90;;;;;;;18.02;92.91;101003.63;5040197;28;20057;-69
2023/07/12 07:20:40;;;;;;;19.30;12.00;;;;;;;18.06;93.26;101002.56;5040131;28;20464;-67
2023/07/12 07:23:05;;;;;;;21.20;12.20;;;;;;;18.04;93.57;101006.91;5035804;28;20025;-67
2023/07/12 07:25:30;;;;;;;21.77;11.95;;;;;;;17.98;92.99;101000.72;5050870;28;20052;-67
2023/07/12 07:27:57;;;;;;;22.90;12.20;;;;;;;18.00;92.29;100992.78;5048180;28;20135;-69
2023/07/12 07:30:22;;;;;;;20.98;11.98;;;;;;;18.09;92.26;101001.03;5039039;28;20073;-66
2023/07/12 07:32:48;;;;;;;20.42;12.10;;;;;;;18.18;91.71;101007.31;5033997;28;20044;-68
2023/07/12 07:35:13;;;;;;;22.05;12.32;;;;;;;18.32;91.98;101018.13;5044128;28;20033;-66
2023/07/12 07:37:40;;;;;;;19.42;11.52;;;;;;;18.49;91.53;101010.59;5043350;28;20108;-67
2023/07/12 07:40:07;;;;;;;21.48;12.35;;;;;;;18.55;89.95;101007.19;5042535;28;20033;-66
2023/07/12 07:42:32;;;;;;;22.20;12.38;;;;;;;18.56;89.32;101005.22;5039578;28;20358;-67
2023/07/12 07:44:58;;;;;;;20.25;11.25;;;;;;;18.77;89.91;101013.38;5044997;28;20043;-67
2023/07/12 07:47:23;;;;;;;28.23;17.75;;;;;;;18.82;89.90;101013.13;5048756;28;20079;-67
2023/07/12 07:49:50;;;;;;;24.92;16.27;;;;;;;18.98;88.33;101013.16;5038353;28;20049;-67
2023/07/12 07:52:15;;;;;;;22.25;11.80;;;;;;;19.08;86.86;101022.22;5042505;28;20473;-67
2023/07/12 07:54:40;;;;;;;20.40;11.02;;;;;;;19.31;86.40;101019.63;5039032;28;20041;-67
2023/07/12 07:57:07;;;;;;;20.23;11.82;;;;;;;19.41;84.73;101018.28;5038962;28;20095;-68
2023/07/12 07:59:33;;;;;;;19.58;11.43;;;;;;;19.51;83.98;101020.50;5040637;28;20036;-68
2023/07/12 08:01:58;;;;;;;19.73;11.18;;;;;;;19.54;83.38;101030.19;5040874;28;20435;-67
2023/07/12 08:04:24;;;;;;;21.48;12.25;;;;;;;19.61;83.47;101027.56;5038013;28;20037;-69
2023/07/12 08:06:50;;;;;;;19.70;11.38;;;;;;;19.79;82.12;101028.81;5029750;28;20115;-69
2023/07/12 08:09:15;;;;;;;21.65;11.25;;;;;;;19.90;81.47;101028.25;5029725;28;20045;-67
2023/07/12 08:11:42;;;;;;;19.95;12.13;;;;;;;20.01;81.80;101034.94;5031124;28;20132;-67
2023/07/12 08:14:07;;;;;;;20.77;11.60;;;;;;;20.08;79.91;101040.72;5033988;28;20136;-68
2023/07/12 08:16:35;;;;;;;20.08;11.50;;;;;;;20.20;82.40;101047.38;5033726;28;20473;-67
2023/07/12 08:19:04;;;;;;;20.63;11.57;;;;;;;20.11;79.78;101044.78;5035566;28;20629;-66
2023/07/12 08:21:30;;;;;;;19.58;11.18;;;;;;;20.16;78.69;101043.69;5040697;28;20041;-68
2023/07/12 08:23:55;;;;;;;19.17;11.85;;;;;;;20.10;80.11;101043.16;5033706;28;20152;-67
2023/07/12 08:26:21;;;;;;;17.90;11.18;;;;;;;20.07;79.04;101049.50;5033970;28;20128;-70
2023/07/12 08:28:46;;;;;;;18.42;11.23;;;;;;;20.04;79.43;101047.44;5033763;28;20061;-69
2023/07/12 08:31:12;;;;;;;21.50;13.25;;;;;;;20.00;78.79;101046.53;5033342;28;20025;-68
2023/07/12 08:33:37;;;;;;;21.52;11.55;;;;;;;20.07;79.25;101053.13;5033626;28;20022;-68
2023/07/12 08:36:03;;;;;;;21.98;12.02;;;;;;;20.18;79.14;101052.56;5033418;28;20110;-68
2023/07/12 08:38:31;;;;;;;22.13;12.00;;;;;;;20.27;79.50;101055.97;5034120;28;20436;-68
2023/07/12 08:40:57;;;;;;;18.77;11.40;;;;;;;20.30;78.87;101057.22;5033548;28;20108;-70
2023/07/12 08:43:29;;;;;;;20.30;11.55;;;;;;;20.26;77.55;101057.94;5033316;28;20040;-69
2023/07/12 08:46:03;;;;;;;20.13;11.48;;;;;;;20.15;76.57;101056.09;5033775;28;20029;-68
2023/07/12 08:48:29;;;;;;;19.55;11.30;;;;;;;20.15;76.92;101056.09;5034722;28;20025;-68
2023/07/12 08:50:54;;;;;;;20.17;11.18;;;;;;;20.21;76.93;101068.69;5032814;28;20513;-68
2023/07/12 08:53:29;;;;;;;19.90;11.82;;;;;;;20.19;77.07;101057.78;5032923;28;20033;-70
2023/07/12 08:55:57;;;;;;;21.42;12.10;;;;;;;20.23;76.78;101061.50;5033116;28;20068;-69
2023/07/12 08:58:27;;;;;;;21.08;11.95;;;;;;;20.20;77.43;101067.84;5048292;28;20148;-69
2023/07/12 09:01:02;;;;;;;19.67;11.65;;;;;;;20.10;77.74;101065.63;5053708;28;20074;-71
2023/07/12 09:03:28;;;;;;;21.02;11.82;;;;;;;20.06;78.15;101062.72;5054378;28;20393;-69
2023/07/12 09:05:53;;;;;;;22.00;12.10;;;;;;;20.18;76.71;101058.16;5041964;28;20037;-68
2023/07/12 09:08:25;;;;;;;19.75;11.52;;;;;;;20.29;76.33;101058.41;5036200;28;20052;-67
2023/07/12 09:10:57;;;;;;;21.95;11.85;;;;;;;20.51;75.89;101062.47;5040845;28;20033;-69
2023/07/12 09:13:53;;;;;;;20.95;12.00;;;;;;;20.69;74.48;101076.91;5040855;28;20051;-68
2023/07/12 09:16:31;;;;;;;21.45;12.73;;;;;;;20.65;74.16;101079.66;5037610;28;20073;-70
2023/07/12 09:19:00;;;;;;;21.25;12.50;;;;;;;20.49;74.79;101081.72;5041438;28;20041;-66
2023/07/12 09:21:29;;;;;;;21.58;13.13;;;;;;;20.28;75.12;101071.63;5041911;28;20033;-65
2023/07/12 09:24:00;;;;;;;22.92;12.40;;;;;;;20.30;74.58;101058.06;5037563;28;20523;-66
2023/07/12 09:26:29;;;;;;;20.92;11.60;;;;;;;20.38;73.70;101067.44;5032963;28;20049;-65
2023/07/12 09:29:08;;;;;;;20.67;11.77;;;;;;;20.55;74.03;101064.19;5032484;28;20087;-68
2023/07/12 09:31:38;;;;;;;20.65;11.63;;;;;;;20.65;73.74;101059.97;5032619;28;20037;-69
2023/07/12 09:34:06;;;;;;;21.67;10.77;;;;;;;20.74;72.00;101054.13;5051698;28;20032;-68
2023/07/12 09:36:39;;;;;;;19.85;11.10;;;;;;;20.84;73.35;101047.13;5054118;28;20060;-67
2023/07/12 09:39:06;;;;;;;18.58;11.18;;;;;;;20.86;70.53;101054.00;5051581;28;20053;-68
2023/07/12 09:41:31;;;;;;;21.52;11.27;;;;;;;21.06;69.81;101051.13;5052476;28;20104;-68
2023/07/12 09:43:59;;;;;;;20.10;11.10;;;;;;;21.08;71.12;101057.22;5052127;28;20059;-69
2023/07/12 09:46:33;;;;;;;21.58;10.50;;;;;;;21.12;71.29;101057.28;5052572;28;20118;-68
2023/07/12 09:49:21;;;;;;;19.38;11.20;;;;;;;21.25;69.25;101046.66;5052528;28;20032;-69
2023/07/12 09:52:01;;;;;;;17.88;10.80;;;;;;;21.27;68.75;101049.91;5051621;28;20040;-68
2023/07/12 09:54:58;;;;;;;19.13;10.88;;;;;;;21.27;69.14;101038.66;5052354;28;20040;-68
2023/07/12 09:58:09;;;;;;;19.35;11.55;;;;;;;21.39;69.35;101041.28;5046740;28;20105;-68
2023/07/12 10:00:50;;;;;;;20.75;10.63;;;;;;;21.47;68.44;101043.03;5043270;28;20501;-68
2023/07/12 10:03:34;;;;;;;20.38;11.07;;;;;;;21.56;67.76;101031.50;5050441;28;20025;-69
2023/07/12 10:06:09;;;;;;;19.27;10.80;;;;;;;21.60;67.02;101035.22;5049932;28;20029;-69
2023/07/12 10:09:03;;;;;;;20.67;11.32;;;;;;;21.60;66.36;101032.41;5050500;28;20498;-68
2023/07/12 10:11:46;;;;;;;18.92;11.43;;;;;;;21.72;66.66;101028.56;5049695;28;20037;-68
2023/07/12 10:14:16;;;;;;;18.05;10.82;;;;;;;21.77;65.13;101039.47;5041979;28;20168;-69
2023/07/12 10:16:53;;;;;;;19.67;10.40;;;;;;;21.95;64.77;101033.34;5031327;28;20030;-68
2023/07/12 10:19:22;;;;;;;18.85;10.70;;;;;;;22.08;64.45;101028.28;5030690;28;20037;-68
2023/07/12 10:21:54;;;;;;;17.77;10.77;;;;;;;22.27;64.74;101036.59;5031271;28;20520;-68
2023/07/12 10:24:24;;;;;;;18.90;10.60;;;;;;;22.34;62.42;101029.41;5042327;28;20039;-70
2023/07/12 10:26:50;;;;;;;19.30;10.60;;;;;;;22.43;62.26;101033.59;5051358;28;20048;-69
2023/07/12 10:29:23;;;;;;;18.30;11.05;;;;;;;22.59;62.99;101033.38;5051583;28;20067;-69
2023/07/12 10:31:56;;;;;;;18.85;11.73;;;;;;;22.78;61.83;101034.38;5051592;28;20685;-68
2023/07/12 10:34:46;;;;;;;17.98;10.05;;;;;;;23.04;60.25;101044.75;5051388;28;20031;-70
2023/07/12 10:37:25;;;;;;;17.30;9.50;;;;;;;23.00;59.28;101035.41;5051426;28;20477;-69
2023/07/12 10:39:50;;;;;;;17.23;10.70;;;;;;;23.19;57.66;101044.94;5051093;28;20037;-70
2023/07/12 10:42:37;;;;;;;17.60;9.70;;;;;;;23.17;57.85;101039.63;5032717;28;20064;-69
2023/07/12 10:45:05;;;;;;;18.30;10.73;;;;;;;23.20;58.43;101047.34;5031424;28;20104;-70
2023/07/12 10:47:36;;;;;;;19.15;11.20;;;;;;;23.36;57.73;101049.94;5031008;28;20025;-69
2023/07/12 10:50:07;;;;;;;17.17;10.40;;;;;;;23.42;55.37;101050.38;5030303;28;20120;-70
2023/07/12 10:52:53;;;;;;;17.55;10.43;;;;;;;23.35;55.40;101048.31;5031065;28;20040;-69
2023/07/12 10:55:22;;;;;;;17.98;9.95;;;;;;;23.36;55.95;101049.94;5030984;28;20087;-70
2023/07/12 10:57:51;;;;;;;17.30;10.15;;;;;;;23.49;56.48;101043.97;5031945;28;20029;-67
2023/07/12 11:00:17;;;;;;;17.60;9.60;;;;;;;23.62;55.38;101048.09;5051181;28;20117;-69
2023/07/12 11:02:56;;;;;;;16.58;9.35;;;;;;;23.52;56.90;101038.34;5051072;28;20107;-69
2023/07/12 11:05:38;;;;;;;17.02;9.52;;;;;;;23.51;56.03;101050.84;5049707;28;20032;-69
2023/07/12 11:08:44;;;;;;;14.48;9.38;;;;;;;23.59;57.35;101048.88;5036034;28;20030;-69
2023/07/12 11:11:09;;;;;;;17.98;9.07;;;;;;;23.78;56.64;101047.00;5032988;28;20148;-69